This is the latest recevied weather packets stored in our database for station/object ED5YAW-10. If no packets are shown the sender has not sent any weather packets the latest 10 day(s).
| Time | Temp. | Humidity | Pressure | Rain* | Wind** | Luminosity | Snow |
|---|---|---|---|---|---|---|---|
| 1777635669 | 15° C | 100% | 881 hPa | - | - | - | - |
| 1777635546 | 15° C | 100% | 881 hPa | - | - | - | - |
| 1777635542 | 15° C | 100% | 881 hPa | - | - | - | - |
| 1777634942 | 15° C | 100% | 881 hPa | - | - | - | - |
| 1777634938 | 15° C | 100% | 881 hPa | - | - | - | - |
| 1777634338 | 15° C | 100% | 881 hPa | - | - | - | - |
| 1777634334 | 15° C | 100% | 881 hPa | - | - | - | - |
| 1777633734 | 15° C | 100% | 881 hPa | - | - | - | - |
| 1777633730 | 15° C | 100% | 881 hPa | - | - | - | - |
| 1777633130 | 15.56° C | 100% | 880 hPa | - | - | - | - |
| 1777633125 | 15.56° C | 100% | 880 hPa | - | - | - | - |
| 1777632525 | 16.11° C | 100% | 881 hPa | - | - | - | - |
| 1777632521 | 16.11° C | 100% | 881 hPa | - | - | - | - |
| 1777631921 | 16.67° C | 96% | 881 hPa | - | - | - | - |
| 1777631917 | 16.67° C | 96% | 881 hPa | - | - | - | - |
| 1777631317 | 17.22° C | 90% | 880 hPa | - | - | - | - |
| 1777631313 | 17.22° C | 90% | 880 hPa | - | - | - | - |
| 1777630712 | 18.33° C | 80% | 880 hPa | - | - | - | - |
| 1777630708 | 18.33° C | 80% | 880 hPa | - | - | - | - |
| 1777630108 | 19.44° C | 74% | 881 hPa | - | - | - | - |
| 1777630104 | 19.44° C | 74% | 881 hPa | - | - | - | - |
| 1777629500 | 20.56° C | 66% | 881 hPa | - | - | - | - |
| 1777628899 | 21.11° C | 65% | 881 hPa | - | - | - | - |
| 1777628895 | 21.11° C | 65% | 881 hPa | - | - | - | - |
| 1777628305 | 22.22° C | 61% | 881 hPa | - | - | - | - |
* Rain since midnight (hover to see other rain measurements)
** Current wind speed in m/s (hover to see current wind gust speed)